KFTK/FTK METAR and TAF weather

Enter ICAO airport designator
Station Type Date Time Source
KFTK METAR 2019/06/17 13:57 UTC NOAA

KFTK 171357Z 22004KT 10SM FEW003 BKN025 BKN200 22/22 A2999 RMK SLP154 P0001 $


Station Type Date Time Source
KFTK Decoded METAR 2019/06/17 13:57 UTC NOAA

Fort Knox, KY, United States (KFTK) 37-54N 085-58W 230M
Jun 17, 2019 - 09:57 AM EDT / 2019.06.17 1357 UTC
Wind: from the SW (220 degrees) at 5 MPH (4 KT):0
Visibility: 10 mile(s):0
Sky conditions: mostly cloudy
Precipitation last hour: 0.01 inches
Temperature: 71 F (22 C)
Dew Point: 71 F (22 C)
Relative Humidity: 100%
Pressure (altimeter): 29.99 in. Hg (1015 hPa)
ob: KFTK 171357Z 22004KT 10SM FEW003 BKN025 BKN200 22/22 A2999 RMK SLP154 P0001
cycle: 14

Station Type Date Time Source
KFTK TAF 2019/06/17 12:54 UTC NOAA

TAF TAF
AMD KFTK 171249Z 1712/1815 VRB06KT 9999 OVC005 QNH2994INS
TEMPO 1712/1714 24010G15KT 6000 -TSRA OVC005CB
BECMG 1713/1714 21009KT 9000 -SHRA SCT005 BKN030 QNH2994INS
TEMPO 1721/1723 22015G20KT -SHRA OVC030
BECMG 1803/1804 VRB06KT 9999 NSW BKN040 QNH2996INS
TEMPO 1808/1814 21020G25KT 8000 -TSRA BKN010CB TX28/1720Z TN20/1712Z

Example: see airport list